createdAt,value
2023-03-21T00:00:57.315Z,101427.03
2023-03-21T00:03:28.955Z,101434.59
2023-03-21T00:05:59.284Z,101422.91
2023-03-21T00:08:31.715Z,101428.56
2023-03-21T00:11:02.888Z,101424.72
2023-03-21T00:13:34.287Z,101420.88
2023-03-21T00:16:10.202Z,101412.09
2023-03-21T00:18:53.052Z,101415.03
2023-03-21T00:24:23.064Z,101414.53
2023-03-21T00:26:53.845Z,101410.50
2023-03-21T00:29:23.846Z,101413.03
2023-03-21T00:31:53.700Z,101407.38
2023-03-21T00:34:36.415Z,101416.66
2023-03-21T00:37:16.785Z,101410.72
2023-03-21T00:39:56.643Z,101410.22
2023-03-21T00:42:27.391Z,101400.41
2023-03-21T00:44:57.263Z,101404.78
2023-03-21T00:47:27.080Z,101397.69
2023-03-21T00:49:57.431Z,101393.38
2023-03-21T00:52:39.856Z,101396.09
2023-03-21T00:55:16.741Z,101388.06
2023-03-21T00:57:50.110Z,101390.47
2023-03-21T01:00:23.288Z,101395.13
2023-03-21T01:03:17.564Z,101391.69
2023-03-21T01:06:09.067Z,101386.69
2023-03-21T01:08:55.294Z,101382.66
2023-03-21T01:11:31.215Z,101373.41
2023-03-21T01:14:18.691Z,101373.09
2023-03-21T01:16:51.308Z,101371.97
2023-03-21T01:19:30.936Z,101364.63
2023-03-21T01:22:03.055Z,101368.94
2023-03-21T01:24:35.597Z,101362.69
2023-03-21T01:27:10.167Z,101364.44
2023-03-21T01:29:39.936Z,101361.72
2023-03-21T01:32:09.639Z,101361.72
2023-03-21T01:34:39.479Z,101357.41
2023-03-21T01:37:09.477Z,101365.03
2023-03-21T01:39:39.331Z,101363.91
2023-03-21T01:42:15.702Z,101358.47
2023-03-21T01:44:56.811Z,101355.28
2023-03-21T01:47:26.904Z,101357.41
2023-03-21T01:50:00.767Z,101350.84
2023-03-21T01:52:38.015Z,101350.84
2023-03-21T01:55:14.409Z,101350.84
2023-03-21T01:58:04.870Z,101357.88
2023-03-21T02:00:36.717Z,101355.97
2023-03-21T02:03:26.206Z,101354.06
2023-03-21T02:06:03.914Z,101349.25
2023-03-21T02:08:39.562Z,101345.53
2023-03-21T02:11:10.781Z,101341.69
2023-03-21T02:13:43.842Z,101342.31
2023-03-21T02:16:21.645Z,101330.31
2023-03-21T02:18:58.825Z,101329.22
2023-03-21T02:21:58.671Z,101324.88
2023-03-21T02:24:59.593Z,101324.88
2023-03-21T02:27:34.896Z,101327.50
2023-03-21T02:30:51.348Z,101325.88
2023-03-21T02:34:03.574Z,101313.91
2023-03-21T02:36:55.102Z,101308.97
2023-03-21T02:39:32.016Z,101309.94
2023-03-21T02:42:09.666Z,101304.41
2023-03-21T02:44:47.182Z,101306.53
2023-03-21T02:47:23.313Z,101304.78
2023-03-21T02:49:58.441Z,101304.78
2023-03-21T02:52:39.067Z,101299.81
2023-03-21T02:55:16.194Z,101291.66
2023-03-21T02:57:47.873Z,101292.22
2023-03-21T03:00:23.450Z,101289.97
2023-03-21T03:03:06.258Z,101292.22
2023-03-21T03:05:40.526Z,101284.84
2023-03-21T03:08:36.129Z,101291.38
2023-03-21T03:11:24.096Z,101284.63
2023-03-21T03:14:21.197Z,101279.69
2023-03-21T03:17:06.796Z,101279.19
2023-03-21T03:19:50.662Z,101270.22
2023-03-21T03:22:27.805Z,101275.94
2023-03-21T03:25:12.633Z,101277.84
2023-03-21T03:27:54.216Z,101280.03
2023-03-21T03:30:29.647Z,101274.91
2023-03-21T03:33:06.713Z,101274.13
2023-03-21T03:35:36.712Z,101275.88
2023-03-21T03:38:11.002Z,101267.72
2023-03-21T03:40:46.995Z,101275.34
2023-03-21T03:43:24.805Z,101268.63
2023-03-21T03:46:00.876Z,101275.97
2023-03-21T03:48:35.953Z,101270.53
2023-03-21T03:51:11.143Z,101265.69
2023-03-21T03:53:48.331Z,101259.28
2023-03-21T03:56:18.325Z,101266.31
2023-03-21T03:58:51.472Z,101260.88
2023-03-21T04:01:22.227Z,101254.34
2023-03-21T04:04:01.013Z,101255.47
2023-03-21T04:06:40.369Z,101251.72
2023-03-21T04:09:20.449Z,101250.66
2023-03-21T04:11:52.121Z,101253.84
2023-03-21T04:14:28.714Z,101244.59
2023-03-21T04:17:02.836Z,101246.19
2023-03-21T04:19:32.583Z,101252.94
2023-03-21T04:22:02.845Z,101241.75
2023-03-21T04:24:33.612Z,101244.97
2023-03-21T04:27:05.798Z,101252.81
2023-03-21T04:29:38.121Z,101246.56
2023-03-21T04:32:17.707Z,101243.53
2023-03-21T04:34:50.356Z,101244.66
2023-03-21T04:37:21.101Z,101257.44
2023-03-21T04:39:50.951Z,101244.97
2023-03-21T04:42:21.935Z,101248.97
2023-03-21T04:44:54.362Z,101248.97
2023-03-21T04:47:24.236Z,101240.00
2023-03-21T04:49:54.054Z,101243.03
2023-03-21T04:52:25.431Z,101237.28
2023-03-21T04:54:57.555Z,101241.13
2023-03-21T04:57:27.376Z,101231.84
2023-03-21T04:59:59.780Z,101226.75
2023-03-21T05:02:29.705Z,101230.88
2023-03-21T05:05:00.203Z,101226.06
2023-03-21T05:07:31.422Z,101229.41
2023-03-21T05:10:02.645Z,101228.38
2023-03-21T05:12:34.986Z,101233.03
2023-03-21T05:15:08.526Z,101224.06
2023-03-21T05:17:38.289Z,101215.13
2023-03-21T05:20:11.444Z,101215.91
2023-03-21T05:22:43.171Z,101218.03
2023-03-21T05:25:21.292Z,101217.41
2023-03-21T05:30:46.301Z,101211.53
2023-03-21T05:33:24.304Z,101211.34
2023-03-21T05:35:58.671Z,101214.56
2023-03-21T05:38:29.208Z,101211.97
2023-03-21T05:40:59.271Z,101212.47
2023-03-21T05:43:35.042Z,101212.34
2023-03-21T05:46:08.214Z,101211.22
2023-03-21T05:48:39.592Z,101217.16
2023-03-21T05:51:13.567Z,101217.16
2023-03-21T05:53:43.851Z,101212.72
2023-03-21T05:56:14.402Z,101215.75
2023-03-21T05:58:44.364Z,101214.31
2023-03-21T06:01:17.319Z,101201.69
2023-03-21T06:03:47.566Z,101213.34
2023-03-21T06:06:20.770Z,101213.16
2023-03-21T06:08:51.389Z,101212.97
2023-03-21T06:11:28.992Z,101205.91
2023-03-21T06:13:58.935Z,101220.00
2023-03-21T06:16:31.899Z,101212.34
2023-03-21T06:19:01.754Z,101208.50
2023-03-21T06:21:34.436Z,101208.50
2023-03-21T06:24:04.633Z,101206.91
2023-03-21T06:26:37.400Z,101207.53
2023-03-21T06:29:10.958Z,101200.09
2023-03-21T06:31:43.519Z,101215.44
2023-03-21T06:34:13.604Z,101204.56
2023-03-21T06:36:45.195Z,101210.00
2023-03-21T06:39:21.555Z,101210.31
2023-03-21T06:41:56.957Z,101213.81
2023-03-21T06:44:27.492Z,101217.53
2023-03-21T06:47:06.138Z,101210.47
2023-03-21T06:49:36.683Z,101215.81
2023-03-21T06:52:06.821Z,101217.41
2023-03-21T06:54:36.934Z,101210.84
2023-03-21T06:57:07.304Z,101214.69
2023-03-21T06:59:37.652Z,101214.56
2023-03-21T07:02:13.346Z,101207.53
2023-03-21T07:04:43.272Z,101204.94
2023-03-21T07:07:13.323Z,101209.75
2023-03-21T07:09:43.953Z,101205.75
2023-03-21T07:12:13.894Z,101204.63
2023-03-21T07:14:44.174Z,101214.91
2023-03-21T07:17:19.203Z,101218.91
2023-03-21T07:19:49.167Z,101222.91
2023-03-21T07:22:19.159Z,101223.09
2023-03-21T07:25:02.380Z,101220.19
2023-03-21T07:27:34.869Z,101213.34
2023-03-21T07:30:05.200Z,101212.34
2023-03-21T07:32:40.849Z,101213.16
2023-03-21T07:35:13.972Z,101210.13
2023-03-21T07:37:45.761Z,101205.78
2023-03-21T07:40:15.870Z,101200.84
2023-03-21T07:42:45.773Z,101197.03
2023-03-21T07:45:21.453Z,101196.41
2023-03-21T07:47:54.578Z,101194.97
2023-03-21T07:50:24.591Z,101199.97
2023-03-21T07:52:54.572Z,101191.81
2023-03-21T07:55:25.033Z,101193.75
2023-03-21T07:57:55.830Z,101191.22
2023-03-21T08:00:26.486Z,101190.59
2023-03-21T08:03:04.896Z,101201.94
2023-03-21T08:05:39.364Z,101204.56
2023-03-21T08:08:10.238Z,101202.66
2023-03-21T08:10:40.128Z,101203.97
2023-03-21T08:13:10.152Z,101199.03
2023-03-21T08:15:42.557Z,101200.31
2023-03-21T08:18:15.155Z,101201.09
2023-03-21T08:20:45.104Z,101204.50
2023-03-21T08:23:15.090Z,101201.47
2023-03-21T08:25:45.014Z,101204.38
2023-03-21T08:28:15.207Z,101202.63
2023-03-21T08:30:45.102Z,101209.84
2023-03-21T08:33:18.915Z,101202.00
2023-03-21T08:35:49.732Z,101208.25
2023-03-21T08:38:19.798Z,101212.09
2023-03-21T08:40:49.612Z,101206.66
2023-03-21T08:43:19.378Z,101206.66
2023-03-21T08:45:49.154Z,101216.28
2023-03-21T08:48:22.008Z,101221.28
2023-03-21T08:50:51.826Z,101217.00
2023-03-21T08:53:21.899Z,101216.03
2023-03-21T08:55:52.522Z,101217.94
2023-03-21T08:58:22.682Z,101212.34
2023-03-21T09:00:52.454Z,101212.50
2023-03-21T09:03:25.050Z,101218.25
2023-03-21T09:05:56.809Z,101205.13
2023-03-21T09:08:27.149Z,101208.50
2023-03-21T09:10:57.722Z,101212.50
2023-03-21T09:13:27.789Z,101209.66
2023-03-21T09:15:58.304Z,101212.84
2023-03-21T09:18:47.294Z,101206.81
2023-03-21T09:21:18.606Z,101211.59
2023-03-21T09:23:48.798Z,101204.09
2023-03-21T09:26:19.298Z,101201.25
2023-03-21T09:28:49.868Z,101199.81
2023-03-21T09:31:23.774Z,101200.75
2023-03-21T09:33:58.138Z,101206.19
2023-03-21T09:36:28.774Z,101201.88
2023-03-21T09:38:59.738Z,101198.19
2023-03-21T09:41:39.737Z,101199.91
2023-03-21T09:44:31.203Z,101190.16
2023-03-21T09:47:07.983Z,101194.63
2023-03-21T09:49:49.262Z,101197.66
2023-03-21T09:52:24.103Z,101201.53
2023-03-21T09:54:55.819Z,101198.19
2023-03-21T09:57:35.068Z,101191.00
2023-03-21T10:00:12.686Z,101193.91
2023-03-21T10:02:45.692Z,101179.63
2023-03-21T10:05:22.389Z,101189.41
2023-03-21T10:07:57.652Z,101190.38
2023-03-21T10:10:31.493Z,101186.19
2023-03-21T10:13:04.232Z,101172.91
2023-03-21T10:15:34.070Z,101178.34
2023-03-21T10:18:05.758Z,101182.19
2023-03-21T10:20:40.543Z,101180.44
2023-03-21T10:23:15.602Z,101174.50
2023-03-21T10:25:49.056Z,101178.84
2023-03-21T10:28:21.538Z,101170.66
2023-03-21T10:30:57.443Z,101160.75
2023-03-21T10:33:40.267Z,101152.59
2023-03-21T10:36:19.584Z,101154.78
2023-03-21T10:38:52.610Z,101136.72
2023-03-21T10:41:23.289Z,101133.03
2023-03-21T10:44:11.300Z,101126.78
2023-03-21T10:46:41.630Z,101130.81
2023-03-21T10:49:11.985Z,101125.38
2023-03-21T10:51:49.315Z,101124.38
2023-03-21T10:54:23.056Z,101124.84
2023-03-21T10:57:00.848Z,101112.22
2023-03-21T10:59:37.648Z,101110.28
2023-03-21T11:02:09.068Z,101105.97
2023-03-21T11:04:40.629Z,101095.41
2023-03-21T11:07:19.339Z,101090.28
2023-03-21T11:09:53.613Z,101092.34
2023-03-21T11:12:37.340Z,101086.28
2023-03-21T11:15:30.841Z,101089.16
2023-03-21T11:18:01.690Z,101085.28
2023-03-21T11:20:35.351Z,101087.22
2023-03-21T11:23:09.854Z,101075.53
2023-03-21T11:25:42.147Z,101078.72
2023-03-21T11:28:16.951Z,101071.53
2023-03-21T11:30:57.077Z,101081.31
2023-03-21T11:33:30.728Z,101076.16
2023-03-21T11:36:08.319Z,101072.63
2023-03-21T11:38:42.990Z,101069.72
2023-03-21T11:41:25.079Z,101073.06
2023-03-21T11:43:56.322Z,101067.28
2023-03-21T11:46:27.828Z,101056.69
2023-03-21T11:48:59.719Z,101064.22
2023-03-21T11:51:36.506Z,101068.06
2023-03-21T11:54:15.998Z,101062.75
2023-03-21T11:56:49.979Z,101069.78
2023-03-21T11:59:43.733Z,101054.34
2023-03-21T12:02:51.749Z,101052.94
2023-03-21T12:05:23.277Z,101043.28
2023-03-21T12:08:03.964Z,101049.97
2023-03-21T12:10:46.684Z,101052.34
2023-03-21T12:13:36.261Z,101054.75
2023-03-21T12:16:25.096Z,101045.72
2023-03-21T12:19:21.624Z,101042.34
2023-03-21T12:22:01.254Z,101047.31
2023-03-21T12:24:38.565Z,101041.56
2023-03-21T12:27:18.256Z,101056.25
2023-03-21T12:30:15.525Z,101042.31
2023-03-21T12:32:58.192Z,101048.16
2023-03-21T12:35:41.478Z,101039.22
2023-03-21T12:38:19.754Z,101035.81
2023-03-21T12:41:07.866Z,101029.44
2023-03-21T12:43:47.001Z,101039.81
2023-03-21T12:46:22.501Z,101028.88
2023-03-21T12:48:56.802Z,101018.81
2023-03-21T12:51:33.013Z,101013.66
2023-03-21T12:54:10.638Z,101011.84
2023-03-21T12:56:49.423Z,101003.03
2023-03-21T12:59:33.076Z,101018.09
2023-03-21T13:02:10.250Z,100998.84
2023-03-21T13:04:47.135Z,100995.50
2023-03-21T13:07:21.773Z,101004.94
2023-03-21T13:09:55.450Z,100989.06
2023-03-21T13:12:39.690Z,100992.28
2023-03-21T13:15:35.294Z,100978.00
2023-03-21T13:18:18.745Z,100969.16
2023-03-21T13:20:52.709Z,100966.22
2023-03-21T13:23:29.383Z,100967.19
2023-03-21T13:26:03.684Z,100960.41
2023-03-21T13:28:37.163Z,100958.81
2023-03-21T13:31:25.463Z,100954.94
2023-03-21T13:34:02.381Z,100944.31
2023-03-21T13:36:40.826Z,100943.44
2023-03-21T13:39:24.330Z,100946.84
2023-03-21T13:41:54.751Z,100947.41
2023-03-21T13:44:35.149Z,100942.31
2023-03-21T13:47:09.695Z,100936.84
2023-03-21T13:49:41.478Z,100935.25
2023-03-21T13:52:32.875Z,100932.72
2023-03-21T13:55:06.423Z,100936.19
2023-03-21T13:57:41.588Z,100932.59
2023-03-21T14:00:23.717Z,100927.41
2023-03-21T14:03:01.568Z,100936.84
2023-03-21T14:05:32.032Z,100936.66
2023-03-21T14:08:15.463Z,100931.03
2023-03-21T14:10:51.886Z,100940.97
2023-03-21T14:13:25.959Z,100931.78
2023-03-21T14:15:59.826Z,100924.25
2023-03-21T14:18:54.159Z,100922.56
2023-03-21T14:21:27.260Z,100919.31
2023-03-21T14:24:01.833Z,100918.38
2023-03-21T14:26:35.762Z,100927.38
2023-03-21T14:29:22.894Z,100930.09
2023-03-21T14:31:55.652Z,100914.16
2023-03-21T14:34:29.995Z,100913.59
2023-03-21T14:37:00.694Z,100918.94
2023-03-21T14:39:32.545Z,100921.00
2023-03-21T14:42:07.733Z,100915.19
2023-03-21T14:44:54.045Z,100917.59
2023-03-21T14:47:27.556Z,100913.97
2023-03-21T14:50:01.166Z,100902.94
2023-03-21T14:52:34.846Z,100909.78
2023-03-21T14:55:08.342Z,100898.28
2023-03-21T14:57:38.172Z,100895.78
2023-03-21T15:00:12.938Z,100890.53
2023-03-21T15:02:46.141Z,100893.97
2023-03-21T15:05:26.707Z,100888.72
2023-03-21T15:07:59.572Z,100886.34
2023-03-21T15:10:32.238Z,100885.41
2023-03-21T15:13:05.196Z,100885.06
2023-03-21T15:15:36.375Z,100883.03
2023-03-21T15:18:11.579Z,100878.25
2023-03-21T15:20:44.724Z,100867.31
2023-03-21T15:23:21.878Z,100871.06
2023-03-21T15:25:51.701Z,100870.25
2023-03-21T15:28:21.681Z,100861.84
2023-03-21T15:30:52.952Z,100859.53
2023-03-21T15:33:23.602Z,100852.00
2023-03-21T15:35:58.201Z,100857.72
2023-03-21T15:38:35.650Z,100848.81
2023-03-21T15:41:29.341Z,100850.19
2023-03-21T15:44:05.709Z,100845.44
2023-03-21T15:46:42.025Z,100853.50
2023-03-21T15:49:23.300Z,100850.66
2023-03-21T15:51:59.297Z,100855.00
2023-03-21T15:54:31.514Z,100848.72
2023-03-21T15:57:05.011Z,100846.31
2023-03-21T15:59:38.845Z,100852.94
2023-03-21T16:02:18.462Z,100864.78
2023-03-21T16:04:59.549Z,100863.41
2023-03-21T16:07:36.554Z,100863.66
2023-03-21T16:10:10.601Z,100867.31
2023-03-21T16:12:40.331Z,100852.53
2023-03-21T16:15:11.345Z,100853.88
2023-03-21T16:17:43.411Z,100859.22
2023-03-21T16:20:20.356Z,100854.31
2023-03-21T16:22:52.963Z,100843.19
2023-03-21T16:25:23.994Z,100847.94
2023-03-21T16:27:53.970Z,100846.44
2023-03-21T16:30:25.657Z,100843.50
2023-03-21T16:32:55.450Z,100843.72
2023-03-21T16:35:26.292Z,100838.50
2023-03-21T16:37:58.737Z,100842.38
2023-03-21T16:40:33.276Z,100847.94
2023-03-21T16:43:03.819Z,100850.47
2023-03-21T16:45:33.735Z,100850.47
2023-03-21T16:48:03.792Z,100853.19
2023-03-21T16:50:36.277Z,100853.19
2023-03-21T16:53:08.970Z,100852.75
2023-03-21T16:55:40.134Z,100851.13
2023-03-21T16:58:10.025Z,100859.31
2023-03-21T17:00:40.508Z,100872.75
2023-03-21T17:03:19.292Z,100874.16
2023-03-21T17:05:49.307Z,100870.94
2023-03-21T17:08:26.685Z,100866.63
2023-03-21T17:10:56.466Z,100874.81
2023-03-21T17:13:26.218Z,100870.94
2023-03-21T17:15:56.024Z,100879.63
2023-03-21T17:18:25.837Z,100883.59
2023-03-21T17:20:55.602Z,100875.84
2023-03-21T17:23:28.784Z,100879.63
2023-03-21T17:25:59.124Z,100875.75
2023-03-21T17:28:29.006Z,100878.00
2023-03-21T17:30:59.160Z,100880.19
2023-03-21T17:33:28.926Z,100880.28
2023-03-21T17:35:58.876Z,100875.84
2023-03-21T17:38:31.557Z,100885.03
2023-03-21T17:41:01.395Z,100880.28
2023-03-21T17:43:34.075Z,100887.88
2023-03-21T17:46:03.918Z,100894.59
2023-03-21T17:48:33.792Z,100888.44
2023-03-21T17:51:03.681Z,100884.91
2023-03-21T17:53:36.261Z,100898.22
2023-03-21T17:56:06.932Z,100906.41
2023-03-21T17:58:36.855Z,100896.84
2023-03-21T18:01:07.324Z,100891.38
2023-03-21T18:03:37.251Z,100882.28
2023-03-21T18:06:07.768Z,100880.00
2023-03-21T18:08:42.402Z,100878.88
2023-03-21T18:11:12.868Z,100871.34
2023-03-21T18:13:43.095Z,100880.22
2023-03-21T18:16:16.298Z,100880.91
2023-03-21T18:18:46.825Z,100882.84
2023-03-21T18:21:20.225Z,100876.88
2023-03-21T18:23:53.271Z,100887.69
2023-03-21T18:26:25.610Z,100878.25
2023-03-21T18:29:47.465Z,100878.78
2023-03-21T18:32:02.554Z,100884.91
2023-03-21T18:34:35.149Z,100882.41
2023-03-21T18:37:07.486Z,100873.25
2023-03-21T18:39:42.694Z,100888.50
2023-03-21T18:42:17.814Z,100886.13
2023-03-21T18:44:49.816Z,100894.66
2023-03-21T18:47:19.897Z,100896.25
2023-03-21T18:52:39.491Z,100904.88
2023-03-21T18:55:14.819Z,100908.06
2023-03-21T18:57:46.627Z,100909.69
2023-03-21T19:00:21.859Z,100902.94
2023-03-21T19:03:09.874Z,100900.91
2023-03-21T19:05:44.881Z,100902.03
2023-03-21T19:08:14.736Z,100901.56
2023-03-21T19:10:47.885Z,100893.72
2023-03-21T19:13:18.784Z,100895.19
2023-03-21T19:15:49.786Z,100885.06
2023-03-21T19:21:11.041Z,100889.25
2023-03-21T19:24:16.335Z,100882.69
2023-03-21T19:26:33.287Z,100881.88
2023-03-21T19:29:03.466Z,100874.81
2023-03-21T19:31:33.318Z,100870.97
2023-03-21T19:34:03.608Z,100869.16
2023-03-21T19:36:34.686Z,100862.56
2023-03-21T19:39:04.703Z,100856.19
2023-03-21T19:41:38.387Z,100865.03
2023-03-21T19:44:09.852Z,100857.97
2023-03-21T19:46:39.682Z,100860.69
2023-03-21T19:49:09.831Z,100863.09
2023-03-21T19:51:40.037Z,100859.91
2023-03-21T19:54:09.814Z,100867.63
2023-03-21T19:56:47.025Z,100855.00
2023-03-21T19:59:17.575Z,100857.25
2023-03-21T20:01:48.830Z,100861.44
2023-03-21T20:04:19.255Z,100860.19
2023-03-21T20:06:50.735Z,100857.00
2023-03-21T20:09:50.793Z,100859.94
2023-03-21T20:12:14.303Z,100870.72
2023-03-21T20:14:47.784Z,100865.13
2023-03-21T20:17:17.646Z,100861.47
2023-03-21T20:19:47.442Z,100853.03
2023-03-21T20:22:27.278Z,100847.44
2023-03-21T20:24:58.177Z,100851.94
2023-03-21T20:27:30.794Z,100842.50
2023-03-21T20:30:09.144Z,100844.63
2023-03-21T20:32:40.121Z,100848.34
2023-03-21T20:35:20.761Z,100846.78
2023-03-21T20:37:54.436Z,100853.66
2023-03-21T20:40:24.379Z,100847.41
2023-03-21T20:43:00.264Z,100850.59
2023-03-21T20:45:35.937Z,100849.81
2023-03-21T20:48:06.052Z,100845.47
2023-03-21T20:50:39.281Z,100851.28
2023-03-21T20:53:09.621Z,100854.78
2023-03-21T20:55:39.911Z,100840.38
2023-03-21T20:58:36.546Z,100842.63
2023-03-21T21:01:04.856Z,100842.63
2023-03-21T21:03:38.387Z,100851.94
2023-03-21T21:06:14.296Z,100847.13
2023-03-21T21:08:44.331Z,100842.38
2023-03-21T21:14:08.851Z,100851.00
2023-03-21T21:16:41.336Z,100841.69
2023-03-21T21:19:11.327Z,100842.47
2023-03-21T21:21:41.270Z,100839.28
2023-03-21T21:24:11.895Z,100847.00
2023-03-21T21:26:46.271Z,100844.59
2023-03-21T21:29:19.739Z,100852.97
2023-03-21T21:31:52.003Z,100852.84
2023-03-21T21:34:22.197Z,100848.84
2023-03-21T21:36:52.304Z,100850.44
2023-03-21T21:39:22.136Z,100844.03
2023-03-21T21:41:51.814Z,100847.91
2023-03-21T21:44:24.151Z,100835.41
2023-03-21T21:46:53.986Z,100842.44
2023-03-21T21:49:23.872Z,100832.22
2023-03-21T21:51:53.703Z,100832.06
2023-03-21T21:54:23.466Z,100827.25
2023-03-21T21:56:54.333Z,100832.69
2023-03-21T21:59:27.368Z,100823.28
2023-03-21T22:01:58.684Z,100823.91
2023-03-21T22:04:28.704Z,100819.59
2023-03-21T22:06:58.875Z,100823.00
2023-03-21T22:09:28.835Z,100821.38
2023-03-21T22:11:58.704Z,100825.22
2023-03-21T22:14:31.092Z,100832.94
2023-03-21T22:17:02.621Z,100820.44
2023-03-21T22:19:32.596Z,100815.00
2023-03-21T22:22:02.370Z,100822.03
2023-03-21T22:24:32.165Z,100820.44
2023-03-21T22:27:01.982Z,100823.81
2023-03-21T22:29:34.685Z,100820.28
2023-03-21T22:32:04.494Z,100819.50
2023-03-21T22:34:34.290Z,100819.50
2023-03-21T22:37:04.066Z,100827.19
2023-03-21T22:39:33.875Z,100823.53
2023-03-21T22:42:04.960Z,100822.25
2023-03-21T22:44:37.629Z,100824.19
2023-03-21T22:47:09.574Z,100823.72
2023-03-21T22:49:39.953Z,100815.06
2023-03-21T22:52:10.034Z,100829.81
2023-03-21T22:54:40.525Z,100827.41
2023-03-21T22:57:11.124Z,100825.81
2023-03-21T22:59:43.597Z,100817.19
2023-03-21T23:02:13.363Z,100821.84
2023-03-21T23:04:43.739Z,100822.47
2023-03-21T23:07:13.655Z,100815.44
2023-03-21T23:09:43.904Z,100814.63
2023-03-21T23:12:14.853Z,100811.44
2023-03-21T23:14:47.192Z,100810.66
2023-03-21T23:17:17.003Z,100811.63
2023-03-21T23:19:46.833Z,100814.19
2023-03-21T23:22:16.660Z,100812.59
2023-03-21T23:24:47.138Z,100816.44
2023-03-21T23:27:18.306Z,100808.75
2023-03-21T23:29:51.770Z,100804.91
2023-03-21T23:32:21.920Z,100798.34
2023-03-21T23:34:51.664Z,100803.00
2023-03-21T23:37:21.522Z,100798.81
2023-03-21T23:39:52.590Z,100802.66
2023-03-21T23:42:22.347Z,100802.78
2023-03-21T23:44:54.836Z,100802.50
2023-03-21T23:47:24.712Z,100799.44
2023-03-21T23:49:54.615Z,100794.44
2023-03-21T23:52:26.217Z,100800.69
2023-03-21T23:54:56.005Z,100793.31
2023-03-21T23:57:25.744Z,100796.84
